Detall de PIREP

Printer-friendly versionPDF version

[2008/11/22 23:13:00]
Flight IATA:CT3217
Pilot Number:026
Company ICAO:CAT
Aircraft Type:B75F/E
PAX:0
Departing Airport: EIDW
Destination Airport: LEPA
Alternate Airport:LEBL
Online: VATSIM
Route:PESIT UL149 DEVOM UN26 BASIK UN90 KORER UN26 LAGOR UN862 POSSY UM601 BCN UW7 LORES
Flight Level:FL310
No Slew and time accel
No pause
Crash detect
Detect pilot in Cockpit between each 30 and 45 minutes
23:13 Zero fuel Weight: 232681 Lbs, Fuel Weight: 24138 Lbs
23:13 VATSIM:EIDW 222300Z 19004KT 9999 -RA FEW010 BKN020 06/04 Q1016 NOSIG
23:13 VATSIM:LEPA 222300Z 07004KT 9999 FEW015 BKN040 13/11 Q1014 NOSIG
23:13 VOICE CATALONIAN
23:23 Parking Brakes off
23:30 Take-off
23:30 Take off Weight: 255583 Lbs
23:30 Wind: 198º @ 004 Knots Heading: 274º
23:30 POS N53º 25´ 20´´ W006º 17´ 31´´
23:30 Gear Up: 184 Knots
23:30 Flaps:3 at 185 Knots
23:30 Flaps:2 at 174 Knots
23:31 Flaps:1
at 220 Knots
23:33 Flaps:0 at 290 Knots
23:45 Wind:290º@006 Knots Heading: 157º Ground Speed: 448 Knots Altitude 28743 ft
23:50 TOC
23:50 Fuel Weight: 17002 Lb
00:00 Wind:331º@015 Knots Heading: 133º Ground Speed: 474 Knots Altitude 31148 ft
00:15 Wind:320º@024 Knots Heading: 167º Ground Speed: 484 Knots Altitude 31151 ft
00:30 Wind:344º@004 Knots Heading: 176º Ground Speed: 464 Knots Altitude 31171 ft
00:45 Wind:333º@018 Knots Heading: 146º Ground Speed: 481 Knots Altitude 31158 ft
01:00 Wind:281º@037 Knots Heading: 175º Ground Speed: 477 Knots Altitude 31148 ft
01:15 Wind:203º@008 Knots Heading: 143º Ground Speed: 465 Knots Altitude 30990 ft
01:21 TOD
01:21 Fuel Weight: 2755 Lb
01:30 Wind:026º@011 Knots Heading: 195º Ground Speed: 362 Knots Altitude 12903 ft
01:42 Gear Down: 164 Knots
01:42 Flaps:1 at 164 Knots
01:42 Flaps:2 at 165 Knots
01:42 Flaps:3 at 16
4 Knots
01:43 Flaps:4 at 155 Knots
01:43 TouchDown:Rate -333 ft/min Speed: 140 Knots
01:43 VATSIM:LEPA 230130Z 05003KT 9999 FEW015 BKN025 13/11 Q1014 NOSIG
01:44 Land
01:44 Wind:052º@003 Knots
01:44 Heading: 058º
01:44 Flight Duration: 02:14
01:44 Landing Weight: 234136 Lbs
01:44 POS N39º 33´ 10´´ E002º 43´ 23´´
01:48 Parking brakes on
01:48 Block to Block Duration: 02:25
01:48 Final Fuel: 908 Lbls
01:48 Spent Fuel: 23229 Lbls
01:48 Flight Length: 965 NM
01:48 TOD Land Length: 114 NM

Exportar CSV

Powered by Drupal - Modified by Danger4k